createdAt,value
2017-10-05T00:01:39.180Z,99.90
2017-10-05T00:04:06.758Z,99.90
2017-10-05T00:06:35.053Z,99.90
2017-10-05T00:09:02.637Z,99.90
2017-10-05T00:11:30.171Z,99.90
2017-10-05T00:13:57.716Z,99.90
2017-10-05T00:16:25.288Z,99.90
2017-10-05T00:18:52.811Z,99.90
2017-10-05T00:21:20.355Z,99.90
2017-10-05T00:23:47.876Z,99.90
2017-10-05T00:26:15.411Z,99.90
2017-10-05T00:28:42.950Z,99.90
2017-10-05T00:31:10.529Z,99.90
2017-10-05T00:33:38.821Z,99.90
2017-10-05T00:36:06.357Z,99.90
2017-10-05T00:38:33.912Z,99.90
2017-10-05T00:41:01.467Z,99.90
2017-10-05T00:43:28.983Z,99.90
2017-10-05T00:45:56.504Z,99.90
2017-10-05T00:48:24.055Z,99.90
2017-10-05T00:50:51.593Z,99.90
2017-10-05T00:53:19.921Z,99.90
2017-10-05T00:55:47.453Z,99.90
2017-10-05T00:58:15.002Z,99.90
2017-10-05T01:00:42.528Z,99.90
2017-10-05T01:03:10.056Z,99.90
2017-10-05T01:05:37.598Z,99.90
2017-10-05T01:08:05.147Z,99.90
2017-10-05T01:10:32.719Z,99.90
2017-10-05T01:13:00.254Z,99.90
2017-10-05T01:15:27.797Z,99.90
2017-10-05T01:17:55.313Z,99.90
2017-10-05T01:20:23.633Z,99.90
2017-10-05T01:22:51.172Z,99.90
2017-10-05T01:25:18.727Z,99.90
2017-10-05T01:27:46.280Z,99.90
2017-10-05T01:30:13.843Z,99.90
2017-10-05T01:32:41.384Z,99.90
2017-10-05T01:35:09.675Z,99.90
2017-10-05T01:37:37.213Z,99.90
2017-10-05T01:40:05.535Z,99.90
2017-10-05T01:42:33.885Z,99.90
2017-10-05T01:45:02.243Z,99.90
2017-10-05T01:47:29.783Z,99.90
2017-10-05T01:49:57.307Z,99.90
2017-10-05T01:52:24.848Z,99.90
2017-10-05T01:54:52.414Z,99.90
2017-10-05T01:57:19.944Z,99.90
2017-10-05T01:59:48.264Z,99.90
2017-10-05T02:02:15.811Z,99.90
2017-10-05T02:04:43.360Z,99.90
2017-10-05T02:07:11.652Z,99.90
2017-10-05T02:09:39.198Z,99.90
2017-10-05T02:12:07.502Z,99.90
2017-10-05T02:14:35.062Z,99.90
2017-10-05T02:17:02.599Z,99.90
2017-10-05T02:19:30.134Z,99.90
2017-10-05T02:21:58.437Z,99.90
2017-10-05T02:24:25.982Z,99.90
2017-10-05T02:26:54.281Z,99.90
2017-10-05T02:29:21.840Z,99.90
2017-10-05T02:31:49.389Z,99.90
2017-10-05T02:34:17.684Z,99.90
2017-10-05T02:36:45.249Z,99.90
2017-10-05T02:39:12.773Z,99.90
2017-10-05T02:41:41.107Z,99.90
2017-10-05T02:44:08.634Z,99.90
2017-10-05T02:46:36.168Z,99.90
2017-10-05T02:49:04.589Z,99.90
2017-10-05T02:51:32.154Z,99.90
2017-10-05T02:53:59.705Z,99.90
2017-10-05T02:56:27.238Z,99.90
2017-10-05T02:58:55.568Z,99.90
2017-10-05T03:01:23.089Z,99.90
2017-10-05T03:03:50.653Z,99.90
2017-10-05T03:06:18.180Z,99.90
2017-10-05T03:08:46.506Z,99.90
2017-10-05T03:11:14.045Z,99.90
2017-10-05T03:13:41.602Z,99.90
2017-10-05T03:16:09.213Z,99.90
2017-10-05T03:18:36.741Z,99.90
2017-10-05T03:21:04.289Z,99.90
2017-10-05T03:23:31.816Z,99.90
2017-10-05T03:26:00.135Z,99.90
2017-10-05T03:28:27.668Z,99.90
2017-10-05T03:30:55.978Z,99.90
2017-10-05T03:33:23.502Z,99.90
2017-10-05T03:35:51.801Z,99.90
2017-10-05T03:38:19.350Z,99.90
2017-10-05T03:40:46.906Z,99.90
2017-10-05T03:43:15.214Z,99.90
2017-10-05T03:45:42.775Z,99.90
2017-10-05T03:48:10.430Z,99.90
2017-10-05T03:50:37.972Z,99.90
2017-10-05T03:53:05.534Z,99.90
2017-10-05T03:55:33.070Z,99.90
2017-10-05T03:58:01.408Z,99.90
2017-10-05T04:00:28.947Z,99.90
2017-10-05T04:02:56.479Z,99.90
2017-10-05T04:05:24.043Z,99.90
2017-10-05T04:07:51.600Z,99.90
2017-10-05T04:10:19.150Z,99.90
2017-10-05T04:12:46.688Z,99.90
2017-10-05T04:15:14.247Z,99.90
2017-10-05T04:17:41.783Z,99.90
2017-10-05T04:20:10.103Z,99.90
2017-10-05T04:22:37.628Z,99.90
2017-10-05T04:25:05.949Z,99.90
2017-10-05T04:27:33.482Z,99.90
2017-10-05T04:30:01.024Z,99.90
2017-10-05T04:32:29.320Z,99.90
2017-10-05T04:34:56.868Z,99.90
2017-10-05T04:37:25.178Z,99.90
2017-10-05T04:39:52.740Z,99.90
2017-10-05T04:42:20.293Z,99.90
2017-10-05T04:44:47.840Z,99.90
2017-10-05T04:47:15.414Z,99.90
2017-10-05T04:49:42.951Z,99.90
2017-10-05T04:52:10.561Z,99.90
2017-10-05T04:54:38.856Z,99.90
2017-10-05T04:57:06.416Z,99.90
2017-10-05T04:59:33.938Z,99.90
2017-10-05T05:02:01.481Z,99.90
2017-10-05T05:04:29.113Z,99.90
2017-10-05T05:06:56.657Z,99.90
2017-10-05T05:09:24.212Z,99.90
2017-10-05T05:11:51.754Z,99.90
2017-10-05T05:14:20.045Z,99.90
2017-10-05T05:16:47.574Z,99.90
2017-10-05T05:19:15.905Z,99.90
2017-10-05T05:21:43.434Z,99.90
2017-10-05T05:24:11.754Z,99.90
2017-10-05T05:26:39.278Z,99.90
2017-10-05T05:29:07.595Z,99.90
2017-10-05T05:31:35.110Z,99.90
2017-10-05T05:34:03.424Z,99.90
2017-10-05T05:36:31.714Z,99.90
2017-10-05T05:38:59.258Z,99.90
2017-10-05T05:41:27.589Z,99.90
2017-10-05T05:43:55.120Z,99.90
2017-10-05T05:46:22.677Z,99.90
2017-10-05T05:48:50.216Z,99.90
2017-10-05T05:51:18.532Z,99.90
2017-10-05T05:53:46.104Z,99.90
2017-10-05T05:56:13.646Z,99.90
2017-10-05T05:58:41.182Z,99.90
2017-10-05T06:01:09.496Z,99.90
2017-10-05T06:03:37.041Z,99.90
2017-10-05T06:06:04.585Z,99.90
2017-10-05T06:08:32.143Z,99.90
2017-10-05T06:10:59.661Z,99.90
2017-10-05T06:13:27.217Z,99.90
2017-10-05T06:15:54.744Z,99.90
2017-10-05T06:18:22.303Z,99.90
2017-10-05T06:20:49.850Z,99.90
2017-10-05T06:23:17.396Z,99.90
2017-10-05T06:25:45.705Z,99.90
2017-10-05T06:28:13.257Z,99.90
2017-10-05T06:30:40.856Z,99.90
2017-10-05T06:33:08.382Z,99.90
2017-10-05T06:35:35.978Z,99.90
2017-10-05T06:38:03.501Z,99.90
2017-10-05T06:40:31.089Z,99.90
2017-10-05T06:42:58.655Z,99.90
2017-10-05T06:45:26.209Z,99.90
2017-10-05T06:47:53.740Z,99.90
2017-10-05T06:50:21.300Z,99.90
2017-10-05T06:52:48.855Z,99.90
2017-10-05T06:55:16.417Z,99.90
2017-10-05T06:57:43.954Z,99.90
2017-10-05T07:00:12.274Z,99.90
2017-10-05T07:02:39.830Z,99.90
2017-10-05T07:05:07.397Z,99.90
2017-10-05T07:07:34.935Z,99.90
2017-10-05T07:10:02.476Z,99.90
2017-10-05T07:12:30.039Z,99.90
2017-10-05T07:14:57.600Z,99.90
2017-10-05T07:17:25.143Z,99.90
2017-10-05T07:19:53.476Z,99.90
2017-10-05T07:22:21.034Z,99.90
2017-10-05T07:24:48.677Z,99.90
2017-10-05T07:27:16.234Z,99.90
2017-10-05T07:29:43.789Z,99.90
2017-10-05T07:32:11.320Z,99.90
2017-10-05T07:34:39.640Z,99.90
2017-10-05T07:37:07.208Z,99.90
2017-10-05T07:39:34.765Z,99.90
2017-10-05T07:42:02.336Z,99.90
2017-10-05T07:44:29.873Z,99.90
2017-10-05T07:46:57.464Z,99.90
2017-10-05T07:49:24.999Z,99.90
2017-10-05T07:51:53.311Z,99.90
2017-10-05T07:54:20.883Z,99.90
2017-10-05T07:56:48.431Z,99.90
2017-10-05T07:59:15.977Z,99.30
2017-10-05T08:01:43.535Z,92.80
2017-10-05T08:04:11.094Z,79.30
2017-10-05T08:06:38.642Z,78.40
2017-10-05T08:09:06.214Z,72.20
2017-10-05T08:11:33.741Z,68.90
2017-10-05T08:14:01.318Z,60.90
2017-10-05T08:16:28.856Z,59.90
2017-10-05T08:18:56.391Z,57.90
2017-10-05T08:21:24.722Z,55.80
2017-10-05T08:23:52.238Z,55.80
2017-10-05T08:26:20.560Z,54.00
2017-10-05T08:28:48.107Z,53.90
2017-10-05T08:31:15.673Z,52.20
2017-10-05T08:33:43.209Z,51.60
2017-10-05T08:36:10.794Z,51.90
2017-10-05T08:38:38.324Z,52.20
2017-10-05T08:41:06.645Z,52.40
2017-10-05T08:43:34.200Z,52.40
2017-10-05T08:46:01.749Z,50.70
2017-10-05T08:48:29.304Z,50.20
2017-10-05T08:50:56.830Z,51.20
2017-10-05T08:53:25.146Z,48.60
2017-10-05T08:55:52.683Z,48.60
2017-10-05T08:58:20.987Z,47.70
2017-10-05T09:00:48.549Z,47.60
2017-10-05T09:03:16.082Z,46.40
2017-10-05T09:05:43.622Z,44.70
2017-10-05T09:08:11.920Z,44.90
2017-10-05T09:10:39.469Z,44.70
2017-10-05T09:13:07.764Z,42.20
2017-10-05T09:15:35.326Z,42.20
2017-10-05T09:18:02.873Z,41.40
2017-10-05T09:20:30.429Z,42.60
2017-10-05T09:22:58.717Z,41.10
2017-10-05T09:25:26.312Z,41.10
2017-10-05T09:27:53.869Z,39.50
2017-10-05T09:30:21.393Z,40.80
2017-10-05T09:32:48.940Z,40.30
2017-10-05T09:35:16.465Z,40.60
2017-10-05T09:37:44.776Z,37.80
2017-10-05T09:40:12.305Z,37.70
2017-10-05T09:42:40.716Z,36.30
2017-10-05T09:45:08.241Z,36.20
2017-10-05T09:47:36.576Z,36.10
2017-10-05T09:50:04.101Z,36.00
2017-10-05T09:52:31.628Z,36.80
2017-10-05T09:54:59.946Z,35.70
2017-10-05T09:57:27.540Z,35.70
2017-10-05T09:59:55.096Z,35.30
2017-10-05T10:02:22.628Z,35.00
2017-10-05T10:04:50.173Z,33.90
2017-10-05T10:07:17.720Z,33.50
2017-10-05T10:09:46.096Z,33.10
2017-10-05T10:12:14.396Z,34.00
2017-10-05T10:14:41.946Z,34.00
2017-10-05T10:17:09.473Z,33.30
2017-10-05T10:19:37.806Z,33.10
2017-10-05T10:22:05.339Z,32.80
2017-10-05T10:24:32.899Z,32.90
2017-10-05T10:27:00.419Z,32.50
2017-10-05T10:29:27.965Z,31.90
2017-10-05T10:31:55.518Z,32.10
2017-10-05T10:34:23.068Z,31.40
2017-10-05T10:36:50.630Z,32.10
2017-10-05T10:39:18.149Z,32.00
2017-10-05T10:41:46.445Z,33.00
2017-10-05T10:44:13.985Z,33.00
2017-10-05T10:46:41.517Z,34.10
2017-10-05T10:49:09.064Z,34.80
2017-10-05T10:51:36.599Z,33.90
2017-10-05T10:54:04.115Z,34.40
2017-10-05T10:56:32.432Z,33.70
2017-10-05T10:58:59.968Z,33.60
2017-10-05T11:01:27.597Z,31.10
2017-10-05T11:03:55.136Z,32.90
2017-10-05T11:06:22.681Z,32.90
2017-10-05T11:08:50.217Z,32.30
2017-10-05T11:11:17.758Z,32.80
2017-10-05T11:13:46.062Z,33.40
2017-10-05T11:16:13.621Z,33.40
2017-10-05T11:18:41.163Z,34.30
2017-10-05T11:21:08.689Z,34.70
2017-10-05T11:23:36.261Z,33.90
2017-10-05T11:26:04.561Z,34.70
2017-10-05T11:28:32.108Z,34.70
2017-10-05T11:31:00.392Z,35.40
2017-10-05T11:33:27.957Z,35.30
2017-10-05T11:35:55.500Z,35.20
2017-10-05T11:38:23.829Z,36.40
2017-10-05T11:40:51.368Z,36.40
2017-10-05T11:43:18.903Z,35.80
2017-10-05T11:45:46.452Z,36.20
2017-10-05T11:48:14.748Z,36.00
2017-10-05T11:50:42.316Z,35.90
2017-10-05T11:53:09.867Z,36.40
2017-10-05T11:55:37.411Z,34.70
2017-10-05T11:58:05.828Z,35.20
2017-10-05T12:00:33.368Z,35.20
2017-10-05T12:03:00.900Z,34.20
2017-10-05T12:05:28.443Z,34.60
2017-10-05T12:07:55.983Z,35.50
2017-10-05T12:10:23.545Z,33.80
2017-10-05T12:12:51.078Z,35.20
2017-10-05T12:15:18.625Z,33.90
2017-10-05T12:17:46.177Z,34.00
2017-10-05T12:20:14.501Z,35.40
2017-10-05T12:22:42.033Z,35.50
2017-10-05T12:25:09.560Z,34.80
2017-10-05T12:27:37.980Z,34.70
2017-10-05T12:30:05.497Z,34.70
2017-10-05T12:32:33.809Z,35.00
2017-10-05T12:35:01.368Z,35.00
2017-10-05T12:37:28.917Z,37.00
2017-10-05T12:39:56.452Z,36.50
2017-10-05T12:42:24.778Z,36.50
2017-10-05T12:44:52.305Z,36.50
2017-10-05T12:47:20.609Z,37.00
2017-10-05T12:49:48.150Z,36.90
2017-10-05T12:52:15.730Z,36.70
2017-10-05T12:54:43.286Z,36.10
2017-10-05T12:57:10.956Z,36.50
2017-10-05T12:59:38.517Z,36.20
2017-10-05T13:02:06.084Z,37.20
2017-10-05T13:04:33.634Z,37.60
2017-10-05T13:07:01.167Z,37.40
2017-10-05T13:09:29.482Z,38.50
2017-10-05T13:11:57.037Z,38.50
2017-10-05T13:14:24.588Z,39.90
2017-10-05T13:16:52.113Z,42.80
2017-10-05T13:19:20.429Z,41.70
2017-10-05T13:21:48.021Z,41.70
2017-10-05T13:24:15.560Z,43.00
2017-10-05T13:26:43.117Z,44.20
2017-10-05T13:29:10.664Z,46.20
2017-10-05T13:31:38.236Z,46.70
2017-10-05T13:34:05.781Z,47.90
2017-10-05T13:36:33.339Z,48.80
2017-10-05T13:39:00.908Z,49.20
2017-10-05T13:41:28.443Z,50.00
2017-10-05T13:43:56.014Z,50.70
2017-10-05T13:46:23.586Z,51.20
2017-10-05T13:48:51.111Z,52.10
2017-10-05T13:51:19.433Z,52.60
2017-10-05T13:53:47.001Z,52.50
2017-10-05T13:56:14.529Z,53.70
2017-10-05T13:58:42.095Z,54.30
2017-10-05T14:01:09.630Z,55.40
2017-10-05T14:03:37.195Z,56.50
2017-10-05T14:06:04.741Z,57.90
2017-10-05T14:08:33.074Z,60.00
2017-10-05T14:11:01.137Z,60.00
2017-10-05T14:13:28.687Z,60.80
2017-10-05T14:15:56.253Z,61.20
2017-10-05T14:18:23.807Z,62.80
2017-10-05T14:20:51.381Z,65.60
2017-10-05T14:23:18.932Z,68.20
2017-10-05T14:25:46.494Z,73.00
2017-10-05T14:28:14.036Z,78.10
2017-10-05T14:30:41.591Z,82.90
2017-10-05T14:33:09.113Z,92.40
2017-10-05T14:35:36.661Z,98.30
2017-10-05T14:38:04.201Z,99.90
2017-10-05T14:40:31.733Z,99.90
2017-10-05T14:42:59.297Z,99.90
2017-10-05T14:45:26.828Z,99.90
2017-10-05T14:47:55.157Z,99.90
2017-10-05T14:50:23.461Z,99.90
2017-10-05T14:52:51.020Z,99.90
2017-10-05T14:55:18.558Z,99.90
2017-10-05T14:57:46.860Z,99.90
2017-10-05T15:00:14.401Z,99.90
2017-10-05T15:02:42.814Z,99.90
2017-10-05T15:05:10.353Z,99.90
2017-10-05T15:07:37.896Z,99.90
2017-10-05T15:10:06.197Z,99.90
2017-10-05T15:12:33.745Z,99.90
2017-10-05T15:15:01.295Z,99.90
2017-10-05T15:17:29.628Z,99.90
2017-10-05T15:19:57.159Z,99.90
2017-10-05T15:22:24.720Z,99.90
2017-10-05T15:24:52.266Z,99.90
2017-10-05T15:27:19.824Z,99.90
2017-10-05T15:29:47.417Z,99.90
2017-10-05T15:32:14.948Z,99.90
2017-10-05T15:34:42.509Z,99.90
2017-10-05T15:37:10.072Z,99.90
2017-10-05T15:39:37.606Z,99.90
2017-10-05T15:42:05.943Z,99.90
2017-10-05T15:44:33.512Z,99.90
2017-10-05T15:47:01.080Z,99.90
2017-10-05T15:49:28.621Z,99.90
2017-10-05T15:51:56.269Z,99.90
2017-10-05T15:54:23.807Z,99.90
2017-10-05T15:56:51.363Z,99.90
2017-10-05T15:59:18.899Z,99.90
2017-10-05T16:01:47.245Z,99.90
2017-10-05T16:04:14.778Z,99.90
2017-10-05T16:06:42.308Z,99.90
2017-10-05T16:09:09.943Z,99.90
2017-10-05T16:11:40.328Z,99.90
2017-10-05T16:14:07.880Z,99.90
2017-10-05T16:16:35.413Z,99.90
2017-10-05T16:19:02.977Z,99.90
2017-10-05T16:21:30.560Z,99.90
2017-10-05T16:23:58.097Z,99.90
2017-10-05T16:26:25.732Z,99.90
2017-10-05T16:28:53.265Z,99.90
2017-10-05T16:31:20.820Z,99.90
2017-10-05T16:33:48.389Z,99.90
2017-10-05T16:36:16.025Z,99.90
2017-10-05T16:38:43.575Z,99.90
2017-10-05T16:41:11.162Z,99.90
2017-10-05T16:43:38.697Z,99.90
2017-10-05T16:46:06.259Z,99.90
2017-10-05T16:48:33.807Z,99.90
2017-10-05T16:51:01.390Z,99.90
2017-10-05T16:53:28.924Z,99.90
2017-10-05T16:55:56.477Z,99.90
2017-10-05T16:58:24.037Z,99.90
2017-10-05T17:00:51.580Z,99.90
2017-10-05T17:03:19.952Z,99.90
2017-10-05T17:05:48.262Z,99.90
2017-10-05T17:08:15.822Z,99.90
2017-10-05T17:10:43.374Z,99.90
2017-10-05T17:13:10.957Z,99.90
2017-10-05T17:15:38.492Z,99.90
2017-10-05T17:18:06.234Z,99.90
2017-10-05T17:20:34.541Z,99.90
2017-10-05T17:23:02.111Z,99.90
2017-10-05T17:25:29.654Z,99.90
2017-10-05T17:27:57.193Z,99.90
2017-10-05T17:30:25.521Z,99.90
2017-10-05T17:32:53.184Z,99.90
2017-10-05T17:35:20.754Z,99.90
2017-10-05T17:37:48.313Z,99.90
2017-10-05T17:40:15.963Z,99.90
2017-10-05T17:42:43.522Z,99.90
2017-10-05T17:45:11.081Z,99.90
2017-10-05T17:47:38.661Z,99.90
2017-10-05T17:50:06.233Z,99.90
2017-10-05T17:52:33.781Z,99.90
2017-10-05T17:55:01.345Z,99.90
2017-10-05T17:57:28.908Z,99.90
2017-10-05T17:59:56.475Z,99.90
2017-10-05T18:02:24.046Z,99.90
2017-10-05T18:04:51.633Z,99.90
2017-10-05T18:07:19.193Z,99.90
2017-10-05T18:09:47.522Z,99.90
2017-10-05T18:12:15.166Z,99.90
2017-10-05T18:14:42.713Z,99.90
2017-10-05T18:17:10.244Z,99.90
2017-10-05T18:19:38.571Z,99.90
2017-10-05T18:22:06.118Z,99.90
2017-10-05T18:24:33.679Z,99.90
2017-10-05T18:27:01.241Z,99.90
2017-10-05T18:29:28.784Z,99.90
2017-10-05T18:31:56.372Z,99.90
2017-10-05T18:34:23.925Z,99.90
2017-10-05T18:36:51.506Z,99.90
2017-10-05T18:39:19.052Z,99.90
2017-10-05T18:41:46.706Z,99.90
2017-10-05T18:44:14.233Z,99.90
2017-10-05T18:46:41.798Z,99.90
2017-10-05T18:49:09.320Z,99.90
2017-10-05T18:51:36.945Z,99.90
2017-10-05T18:54:04.478Z,99.90
2017-10-05T18:56:32.054Z,99.90
2017-10-05T18:58:59.574Z,99.90
2017-10-05T19:01:27.121Z,99.90
2017-10-05T19:03:54.674Z,99.90
2017-10-05T19:06:22.228Z,99.90
2017-10-05T19:08:49.786Z,99.90
2017-10-05T19:11:17.318Z,99.90
2017-10-05T19:13:44.882Z,99.90
2017-10-05T19:16:12.458Z,99.90
2017-10-05T19:18:40.018Z,99.90
2017-10-05T19:21:07.542Z,99.90
2017-10-05T19:23:35.138Z,99.90
2017-10-05T19:26:02.683Z,99.90
2017-10-05T19:28:30.245Z,99.90
2017-10-05T19:30:57.822Z,99.90
2017-10-05T19:33:25.359Z,99.90
2017-10-05T19:35:52.926Z,99.90
2017-10-05T19:38:20.473Z,99.90
2017-10-05T19:40:48.030Z,99.90
2017-10-05T19:43:15.574Z,99.90
2017-10-05T19:45:43.133Z,99.90
2017-10-05T19:48:10.702Z,99.90
2017-10-05T19:50:38.233Z,99.90
2017-10-05T19:53:06.554Z,99.90
2017-10-05T19:55:34.085Z,99.90
2017-10-05T19:58:02.401Z,99.90
2017-10-05T20:00:29.938Z,99.90
2017-10-05T20:02:57.504Z,99.90
2017-10-05T20:05:25.032Z,99.90
2017-10-05T20:07:53.358Z,99.90
2017-10-05T20:10:21.171Z,99.90
2017-10-05T20:12:48.714Z,99.90
2017-10-05T20:15:20.778Z,99.90
2017-10-05T20:17:48.958Z,99.90
2017-10-05T20:20:20.471Z,99.90
2017-10-05T20:22:54.707Z,99.90
2017-10-05T20:25:37.132Z,99.90
2017-10-05T20:28:20.377Z,99.90
2017-10-05T20:31:04.386Z,99.90
2017-10-05T20:33:31.963Z,99.90
2017-10-05T20:35:59.497Z,99.90
2017-10-05T20:38:27.060Z,99.90
2017-10-05T20:40:54.594Z,99.90
2017-10-05T20:43:22.153Z,99.90
2017-10-05T20:45:49.704Z,99.90
2017-10-05T20:48:17.269Z,99.90
2017-10-05T20:50:44.802Z,99.90
2017-10-05T20:53:13.122Z,99.90
2017-10-05T20:55:40.695Z,99.90
2017-10-05T20:58:08.241Z,99.90
2017-10-05T21:00:35.821Z,99.90
2017-10-05T21:03:03.360Z,99.90
2017-10-05T21:05:30.919Z,99.90
2017-10-05T21:07:58.474Z,99.90
2017-10-05T21:10:26.038Z,99.90
2017-10-05T21:12:53.604Z,99.90
2017-10-05T21:15:21.142Z,99.90
2017-10-05T21:17:48.692Z,99.90
2017-10-05T21:20:16.279Z,99.90
2017-10-05T21:22:43.831Z,99.90
2017-10-05T21:25:11.446Z,99.90
2017-10-05T21:27:39.022Z,99.90
2017-10-05T21:30:06.666Z,99.90
2017-10-05T21:32:34.227Z,99.90
2017-10-05T21:35:01.773Z,99.90
2017-10-05T21:37:29.351Z,99.90
2017-10-05T21:39:56.906Z,99.90
2017-10-05T21:42:24.462Z,99.90
2017-10-05T21:44:52.863Z,99.90
2017-10-05T21:47:20.408Z,99.90
2017-10-05T21:49:47.985Z,99.90
2017-10-05T21:52:15.554Z,99.90
2017-10-05T21:54:43.125Z,99.90
2017-10-05T21:57:10.694Z,99.90
2017-10-05T21:59:39.054Z,99.90
2017-10-05T22:02:06.640Z,99.90
2017-10-05T22:04:34.335Z,99.90
2017-10-05T22:07:01.899Z,99.90
2017-10-05T22:09:29.476Z,99.90
2017-10-05T22:11:57.075Z,99.90
2017-10-05T22:14:25.411Z,99.90
2017-10-05T22:16:53.005Z,99.90
2017-10-05T22:19:21.439Z,99.90
2017-10-05T22:21:49.017Z,99.90
2017-10-05T22:24:16.591Z,99.90
2017-10-05T22:26:44.171Z,99.90
2017-10-05T22:29:12.506Z,99.90
2017-10-05T22:31:40.103Z,99.90
2017-10-05T22:34:07.693Z,99.90
2017-10-05T22:36:35.274Z,99.90
2017-10-05T22:39:02.852Z,99.90
2017-10-05T22:41:30.424Z,99.90
2017-10-05T22:43:58.018Z,99.90
2017-10-05T22:46:26.366Z,99.90
2017-10-05T22:48:53.968Z,99.90
2017-10-05T22:51:21.559Z,99.90
2017-10-05T22:53:49.148Z,99.90
2017-10-05T22:56:16.727Z,99.90
2017-10-05T22:58:44.286Z,99.90
2017-10-05T23:01:12.635Z,99.90
2017-10-05T23:03:40.199Z,99.90
2017-10-05T23:06:07.790Z,99.90
2017-10-05T23:08:35.351Z,99.90
2017-10-05T23:11:02.938Z,99.90
2017-10-05T23:13:30.514Z,99.90
2017-10-05T23:15:58.107Z,99.90
2017-10-05T23:18:25.678Z,99.90
2017-10-05T23:20:54.005Z,99.90
2017-10-05T23:23:21.589Z,99.90
2017-10-05T23:25:49.158Z,99.90
2017-10-05T23:28:17.525Z,99.90
2017-10-05T23:30:45.098Z,99.90
2017-10-05T23:33:12.706Z,99.90
2017-10-05T23:35:40.279Z,99.90
2017-10-05T23:38:08.216Z,99.90
2017-10-05T23:40:35.802Z,99.90
2017-10-05T23:43:03.404Z,99.90
2017-10-05T23:45:31.758Z,99.90
2017-10-05T23:47:59.337Z,99.90
2017-10-05T23:50:27.698Z,99.90
2017-10-05T23:52:56.038Z,99.90
2017-10-05T23:55:23.639Z,99.90
2017-10-05T23:57:51.972Z,99.90
